Jevne, Minnesota
Current Conditions -  °F | °C
As of 12:05 AM on Sunday 26 Oct 2014 (Local Time) from KHZX Reporting Station
Clear Clear  
Wind Chill: 41°   Ceiling: Unl
Heat Index: 41°   Visibility: 10mi
Dew Point: 27°   Wind: 3mph
Humidity: 57%   Direction: 260°W
Pressure: 30.01"   Gusts: NA
Location:  46.7232°N, 93.3159°W
Report Text: KHZX 260505Z AUTO 26003KT 10SM CLR 05/M03 A3001 RMK AO2
Loading
Personal Weather Stations






























Interactive Weather Map New forecast layout! Learn more

10-Day Weather Forecast

Advertisements
Track Severe Weather on mobile